createdAt,value
2019-02-16T00:03:28.674Z,8.53
2019-02-16T00:05:56.004Z,7.78
2019-02-16T00:08:23.588Z,7.17
2019-02-16T00:10:50.876Z,5.83
2019-02-16T00:13:18.169Z,7.33
2019-02-16T00:15:45.455Z,6.85
2019-02-16T00:18:12.753Z,7.30
2019-02-16T00:20:40.028Z,9.45
2019-02-16T00:23:07.394Z,7.85
2019-02-16T00:25:34.688Z,6.55
2019-02-16T00:28:01.976Z,8.05
2019-02-16T00:30:29.271Z,6.28
2019-02-16T00:32:56.558Z,6.00
2019-02-16T00:35:23.847Z,5.90
2019-02-16T00:37:51.142Z,6.67
2019-02-16T00:40:18.436Z,6.05
2019-02-16T00:42:45.728Z,5.65
2019-02-16T00:45:13.096Z,5.92
2019-02-16T00:47:40.382Z,5.85
2019-02-16T00:50:07.697Z,6.20
2019-02-16T00:52:34.966Z,5.28
2019-02-16T00:55:02.250Z,6.78
2019-02-16T00:57:29.546Z,5.05
2019-02-16T00:59:56.825Z,6.12
2019-02-16T01:02:24.121Z,8.83
2019-02-16T01:04:51.433Z,7.12
2019-02-16T01:07:18.735Z,9.43
2019-02-16T01:09:46.010Z,5.17
2019-02-16T01:12:13.340Z,6.08
2019-02-16T01:14:40.666Z,5.90
2019-02-16T01:17:07.979Z,5.33
2019-02-16T01:19:35.257Z,5.65
2019-02-16T01:22:02.552Z,6.58
2019-02-16T01:24:29.855Z,5.17
2019-02-16T01:26:57.146Z,9.65
2019-02-16T01:29:24.503Z,5.03
2019-02-16T01:31:51.814Z,5.47
2019-02-16T01:34:19.206Z,7.37
2019-02-16T01:36:46.512Z,6.12
2019-02-16T01:39:13.908Z,7.00
2019-02-16T01:41:41.214Z,6.22
2019-02-16T01:44:08.620Z,5.87
2019-02-16T01:46:35.978Z,6.28
2019-02-16T01:49:03.335Z,5.80
2019-02-16T01:51:32.205Z,5.00
2019-02-16T01:53:59.652Z,7.10
2019-02-16T01:56:27.036Z,5.17
2019-02-16T01:58:54.448Z,5.92
2019-02-16T02:04:33.212Z,5.78
2019-02-16T02:07:00.590Z,6.70
2019-02-16T02:09:28.042Z,6.00
2019-02-16T02:11:56.452Z,5.45
2019-02-16T02:14:23.845Z,5.05
2019-02-16T02:16:52.220Z,6.60
2019-02-16T02:19:19.613Z,7.50
2019-02-16T02:21:47.005Z,7.15
2019-02-16T02:24:14.392Z,5.10
2019-02-16T02:26:41.714Z,6.35
2019-02-16T02:29:09.120Z,4.92
2019-02-16T02:31:37.622Z,5.20
2019-02-16T02:34:05.520Z,5.47
2019-02-16T02:36:33.113Z,5.97
2019-02-16T02:39:00.502Z,7.87
2019-02-16T02:41:27.912Z,7.42
2019-02-16T02:43:55.276Z,4.78
2019-02-16T02:46:22.711Z,5.37
2019-02-16T02:48:50.093Z,5.60
2019-02-16T02:51:17.419Z,5.20
2019-02-16T02:53:44.810Z,5.35
2019-02-16T02:56:12.211Z,5.20
2019-02-16T02:58:39.712Z,5.10
2019-02-16T03:01:07.120Z,5.28
2019-02-16T03:03:34.507Z,6.25
2019-02-16T03:06:01.939Z,5.65
2019-02-16T03:08:29.282Z,5.28
2019-02-16T03:10:56.717Z,5.78
2019-02-16T03:13:24.093Z,5.35
2019-02-16T03:15:51.512Z,5.45
2019-02-16T03:18:18.885Z,5.17
2019-02-16T03:20:46.337Z,5.47
2019-02-16T03:23:34.477Z,5.42
2019-02-16T03:26:21.215Z,5.60
2019-02-16T03:32:15.217Z,5.58
2019-02-16T03:35:01.962Z,5.80
2019-02-16T03:37:50.205Z,4.83
2019-02-16T03:40:17.581Z,5.60
2019-02-16T03:42:44.996Z,5.53
2019-02-16T03:45:12.486Z,5.40
2019-02-16T03:47:39.920Z,4.37
2019-02-16T03:53:14.570Z,4.72
2019-02-16T03:55:41.992Z,5.45
2019-02-16T03:58:09.361Z,5.83
2019-02-16T04:00:36.802Z,7.45
2019-02-16T04:03:04.267Z,6.65
2019-02-16T04:05:31.661Z,7.50
2019-02-16T04:07:58.988Z,5.08
2019-02-16T04:10:26.361Z,7.08
2019-02-16T04:12:53.751Z,6.50
2019-02-16T04:15:21.121Z,5.90
2019-02-16T04:20:22.858Z,6.33
2019-02-16T04:22:50.170Z,7.55
2019-02-16T04:25:17.440Z,6.37
2019-02-16T04:27:44.722Z,7.20
2019-02-16T04:30:11.988Z,5.80
2019-02-16T04:32:39.380Z,6.12
2019-02-16T04:35:06.718Z,6.50
2019-02-16T04:37:34.012Z,7.67
2019-02-16T04:40:01.298Z,5.95
2019-02-16T04:42:28.616Z,6.78
2019-02-16T04:44:55.964Z,7.20
2019-02-16T04:47:23.258Z,7.70
2019-02-16T04:49:50.583Z,5.58
2019-02-16T04:52:17.882Z,6.35
2019-02-16T04:54:45.213Z,5.95
2019-02-16T04:57:12.568Z,5.83
2019-02-16T04:59:39.844Z,6.30
2019-02-16T05:02:07.151Z,6.08
2019-02-16T05:04:34.453Z,8.40
2019-02-16T05:07:01.797Z,6.45
2019-02-16T05:09:29.090Z,7.20
2019-02-16T05:11:56.369Z,6.15
2019-02-16T05:14:23.662Z,6.80
2019-02-16T05:16:50.945Z,7.15
2019-02-16T05:19:18.292Z,5.00
2019-02-16T05:21:45.583Z,5.35
2019-02-16T05:24:12.885Z,7.25
2019-02-16T05:26:40.179Z,5.78
2019-02-16T05:29:07.515Z,5.72
2019-02-16T05:31:34.806Z,8.03
2019-02-16T05:34:02.093Z,5.60
2019-02-16T05:36:29.415Z,5.45
2019-02-16T05:38:56.782Z,5.95
2019-02-16T05:41:24.049Z,5.17
2019-02-16T05:43:51.394Z,10.35
2019-02-16T05:46:18.674Z,6.15
2019-02-16T05:48:46.041Z,6.50
2019-02-16T05:51:13.410Z,7.85
2019-02-16T05:53:40.683Z,6.62
2019-02-16T05:56:08.013Z,6.50
2019-02-16T05:58:35.392Z,7.40
2019-02-16T06:01:02.679Z,7.92
2019-02-16T06:03:29.984Z,6.78
2019-02-16T06:05:57.321Z,7.58
2019-02-16T06:08:24.608Z,5.80
2019-02-16T06:10:51.896Z,8.15
2019-02-16T06:13:19.203Z,6.22
2019-02-16T06:15:46.506Z,5.40
2019-02-16T06:18:13.878Z,6.65
2019-02-16T06:20:41.158Z,8.48
2019-02-16T06:23:08.458Z,7.30
2019-02-16T06:25:35.778Z,7.37
2019-02-16T06:28:03.295Z,5.95
2019-02-16T06:30:30.611Z,8.80
2019-02-16T06:32:57.894Z,6.75
2019-02-16T06:38:03.711Z,7.60
2019-02-16T06:40:31.573Z,7.60
2019-02-16T06:42:58.850Z,6.67
2019-02-16T06:45:26.136Z,6.10
2019-02-16T06:47:53.451Z,6.65
2019-02-16T06:50:20.877Z,6.58
2019-02-16T06:52:48.195Z,7.70
2019-02-16T06:55:55.326Z,7.60
2019-02-16T06:58:22.660Z,6.90
2019-02-16T07:09:08.886Z,7.17
2019-02-16T07:17:27.758Z,9.53
2019-02-16T07:31:02.299Z,6.05
2019-02-16T07:33:29.581Z,7.50
2019-02-16T07:35:56.880Z,7.28
2019-02-16T07:38:24.155Z,6.33
2019-02-16T07:40:51.449Z,6.83
2019-02-16T07:43:38.000Z,6.30
2019-02-16T07:46:24.893Z,8.15
2019-02-16T07:49:11.466Z,5.95
2019-02-16T07:54:36.546Z,8.98
2019-02-16T08:02:32.531Z,10.80
2019-02-16T08:05:19.114Z,8.50
2019-02-16T08:08:05.771Z,7.08
2019-02-16T08:10:52.399Z,8.88
2019-02-16T08:16:13.850Z,7.53
2019-02-16T08:19:00.435Z,7.47
2019-02-16T08:24:35.524Z,6.50
2019-02-16T08:32:44.802Z,7.45
2019-02-16T08:35:32.273Z,7.47
2019-02-16T08:38:18.931Z,8.83
2019-02-16T08:41:05.586Z,8.80
2019-02-16T08:49:05.095Z,9.23
2019-02-16T08:51:51.693Z,8.10
2019-02-16T08:57:50.955Z,8.37
2019-02-16T09:00:37.539Z,9.17
2019-02-16T09:03:25.745Z,8.10
2019-02-16T09:05:54.703Z,8.33
2019-02-16T09:08:24.769Z,7.80
2019-02-16T09:11:11.375Z,9.00
2019-02-16T09:13:40.309Z,9.30
2019-02-16T09:19:19.581Z,9.17
2019-02-16T09:24:40.531Z,8.57
2019-02-16T09:27:27.577Z,8.20
2019-02-16T09:33:02.529Z,9.00
2019-02-16T09:35:49.167Z,8.70
2019-02-16T09:38:35.825Z,7.87
2019-02-16T09:41:22.383Z,8.57
2019-02-16T09:44:08.967Z,9.83
2019-02-16T09:49:43.765Z,8.40
2019-02-16T09:52:30.346Z,8.53
2019-02-16T09:55:17.006Z,9.20
2019-02-16T09:58:03.563Z,8.73
2019-02-16T10:03:43.937Z,8.47
2019-02-16T10:06:30.587Z,8.53
2019-02-16T10:12:05.319Z,7.80
2019-02-16T10:14:51.905Z,7.93
2019-02-16T10:17:38.569Z,8.23
2019-02-16T10:23:00.098Z,8.43
2019-02-16T10:25:46.699Z,8.23
2019-02-16T10:28:33.275Z,8.37
2019-02-16T10:39:28.093Z,8.80
2019-02-16T10:42:14.706Z,8.83
2019-02-16T10:45:01.334Z,8.50
2019-02-16T10:47:48.067Z,8.23
2019-02-16T10:53:41.930Z,8.50
2019-02-16T11:01:50.894Z,8.90
2019-02-16T11:04:38.507Z,9.10
2019-02-16T11:12:51.592Z,8.80
2019-02-16T11:15:38.364Z,10.10
2019-02-16T11:18:25.012Z,9.20
2019-02-16T11:21:11.606Z,8.77
2019-02-16T11:26:46.332Z,9.00
2019-02-16T11:29:32.905Z,9.03
2019-02-16T11:32:19.496Z,11.83
2019-02-16T11:38:13.393Z,9.90
2019-02-16T11:46:08.706Z,10.43
2019-02-16T11:48:55.276Z,8.93
2019-02-16T11:54:16.491Z,9.57
2019-02-16T11:57:03.281Z,10.20
2019-02-16T11:59:50.007Z,13.50
2019-02-16T12:02:39.803Z,11.40
2019-02-16T12:05:25.035Z,9.37
2019-02-16T12:08:11.806Z,9.57
2019-02-16T12:10:59.713Z,12.17
2019-02-16T12:16:02.982Z,12.90
2019-02-16T12:23:58.123Z,10.18
2019-02-16T12:29:33.901Z,10.40
2019-02-16T12:40:21.386Z,10.00
2019-02-16T12:42:53.194Z,9.85
2019-02-16T12:48:14.899Z,11.73
2019-02-16T12:51:01.513Z,11.35
2019-02-16T12:53:30.579Z,9.48
2019-02-16T13:06:59.145Z,10.38
2019-02-16T13:09:45.841Z,10.80
2019-02-16T13:12:32.583Z,9.48
2019-02-16T13:15:19.186Z,10.95
2019-02-16T13:18:05.765Z,9.55
2019-02-16T13:23:26.539Z,10.75
2019-02-16T13:26:13.911Z,12.15
2019-02-16T13:29:00.619Z,9.60
2019-02-16T13:37:17.753Z,15.05
2019-02-16T13:40:04.326Z,10.00
2019-02-16T13:42:50.910Z,13.00
2019-02-16T13:56:08.460Z,12.10
2019-02-16T14:07:13.059Z,11.90
2019-02-16T14:15:27.223Z,9.43
2019-02-16T14:17:54.536Z,10.38
2019-02-16T14:20:21.891Z,13.05
2019-02-16T14:22:49.217Z,15.23
2019-02-16T14:25:42.769Z,9.50
2019-02-16T14:28:05.164Z,10.50
2019-02-16T14:30:32.471Z,10.60
2019-02-16T14:32:59.796Z,11.93
2019-02-16T14:35:27.161Z,10.75
2019-02-16T14:38:13.828Z,8.63
2019-02-16T14:40:41.187Z,11.63
2019-02-16T14:43:08.532Z,10.15
2019-02-16T14:48:50.222Z,10.18
2019-02-16T14:51:17.517Z,10.80
2019-02-16T14:53:44.886Z,11.83
2019-02-16T14:56:12.230Z,13.68
2019-02-16T14:58:39.619Z,10.28
2019-02-16T15:01:06.962Z,9.23
2019-02-16T15:03:34.340Z,10.23
2019-02-16T15:06:01.680Z,10.28
2019-02-16T15:08:29.004Z,10.53
2019-02-16T15:10:56.368Z,12.10
2019-02-16T15:13:23.748Z,12.93
2019-02-16T15:18:40.809Z,11.18
2019-02-16T15:21:08.116Z,15.65
2019-02-16T15:23:35.457Z,12.73
2019-02-16T15:26:02.834Z,11.12
2019-02-16T15:28:30.199Z,12.90
2019-02-16T15:30:57.525Z,13.10
2019-02-16T15:33:24.804Z,10.75
2019-02-16T15:35:52.378Z,11.83
2019-02-16T15:38:19.674Z,10.78
2019-02-16T15:40:46.990Z,12.05
2019-02-16T15:43:14.418Z,10.80
2019-02-16T15:48:30.020Z,13.48
2019-02-16T15:50:57.411Z,14.33
2019-02-16T15:53:24.908Z,12.25
2019-02-16T15:55:52.576Z,14.47
2019-02-16T15:58:19.948Z,16.12
2019-02-16T16:00:47.445Z,12.23
2019-02-16T16:03:14.785Z,13.50
2019-02-16T16:05:42.122Z,12.10
2019-02-16T16:08:28.708Z,15.13
2019-02-16T16:11:15.741Z,14.30
2019-02-16T16:14:02.929Z,14.25
2019-02-16T16:16:49.581Z,14.58
2019-02-16T16:22:11.951Z,17.00
2019-02-16T16:24:58.550Z,17.70
2019-02-16T16:32:55.584Z,17.67
2019-02-16T16:35:42.261Z,17.98
2019-02-16T16:38:29.031Z,15.30
2019-02-16T16:41:15.661Z,21.75
2019-02-16T16:46:40.428Z,14.53
2019-02-16T16:49:27.068Z,18.98
2019-02-16T16:52:13.667Z,15.55
2019-02-16T16:55:01.095Z,18.32
2019-02-16T16:57:47.789Z,18.15
2019-02-16T17:00:34.376Z,21.07
2019-02-16T17:03:21.056Z,17.30
2019-02-16T17:14:08.956Z,20.55
2019-02-16T17:16:55.593Z,16.42
2019-02-16T17:22:35.407Z,36.80
2019-02-16T17:28:12.005Z,25.10
2019-02-16T17:41:30.240Z,18.02
2019-02-16T17:44:17.122Z,17.87
2019-02-16T17:47:03.817Z,18.32
2019-02-16T17:52:25.460Z,17.20
2019-02-16T17:55:12.224Z,22.13
2019-02-16T18:00:34.734Z,24.72
2019-02-16T18:03:23.325Z,24.67
2019-02-16T18:08:58.052Z,25.92
2019-02-16T18:11:44.708Z,28.05
2019-02-16T18:14:31.748Z,31.33
2019-02-16T18:17:18.420Z,27.10
2019-02-16T18:22:39.386Z,28.67
2019-02-16T18:25:26.399Z,28.30
2019-02-16T18:28:13.239Z,24.32
2019-02-16T18:31:00.175Z,25.02
2019-02-16T18:33:46.828Z,28.02
2019-02-16T18:36:34.482Z,29.48
2019-02-16T18:39:21.563Z,24.15
2019-02-16T18:42:08.196Z,26.87
2019-02-16T18:47:42.930Z,27.75
2019-02-16T18:53:17.824Z,26.25
2019-02-16T18:56:05.909Z,24.63
2019-02-16T18:58:52.523Z,24.55
2019-02-16T19:01:39.249Z,28.50
2019-02-16T19:04:25.882Z,27.30
2019-02-16T19:07:12.588Z,29.35
2019-02-16T19:09:59.272Z,24.95
2019-02-16T19:12:45.971Z,23.18
2019-02-16T19:15:32.661Z,22.00
2019-02-16T19:21:07.481Z,21.30
2019-02-16T19:26:42.573Z,19.30
2019-02-16T19:29:29.431Z,25.82
2019-02-16T19:32:17.828Z,25.48
2019-02-16T19:35:04.517Z,25.65
2019-02-16T19:37:51.180Z,22.70
2019-02-16T19:40:37.858Z,24.65
2019-02-16T19:43:24.504Z,24.80
2019-02-16T19:48:59.283Z,23.60
2019-02-16T19:54:38.904Z,20.57
2019-02-16T19:57:07.904Z,20.72
2019-02-16T19:59:52.770Z,25.15
2019-02-16T20:02:21.801Z,23.27
2019-02-16T20:04:50.801Z,23.10
2019-02-16T20:07:19.848Z,19.75
2019-02-16T20:10:06.585Z,22.13
2019-02-16T20:12:42.389Z,24.05
2019-02-16T20:15:13.868Z,24.75
2019-02-16T20:18:04.186Z,23.10
2019-02-16T20:20:39.260Z,23.30
2019-02-16T20:26:19.549Z,22.80
2019-02-16T20:29:06.159Z,21.80
2019-02-16T20:31:52.873Z,24.37
2019-02-16T20:34:39.485Z,24.75
2019-02-16T20:37:26.135Z,22.55
2019-02-16T20:40:12.815Z,21.05
2019-02-16T20:45:47.560Z,25.75
2019-02-16T20:48:34.269Z,19.07
2019-02-16T20:53:55.815Z,23.02
2019-02-16T20:56:42.585Z,27.58
2019-02-16T20:59:29.289Z,30.27
2019-02-16T21:02:16.407Z,26.00
2019-02-16T21:05:03.041Z,28.62
2019-02-16T21:07:49.778Z,19.30
2019-02-16T21:10:18.788Z,22.75
2019-02-16T21:12:53.545Z,24.57
2019-02-16T21:15:37.365Z,26.05
2019-02-16T21:18:24.005Z,22.37
2019-02-16T21:21:10.647Z,24.12
2019-02-16T21:26:36.969Z,21.90
2019-02-16T21:29:22.375Z,25.40
2019-02-16T21:32:08.943Z,27.67
2019-02-16T21:34:55.566Z,26.15
2019-02-16T21:37:42.407Z,22.02
2019-02-16T21:43:07.411Z,22.52
2019-02-16T21:45:54.231Z,21.73
2019-02-16T21:48:44.519Z,21.85
2019-02-16T21:51:31.147Z,23.75
2019-02-16T21:59:27.075Z,32.78
2019-02-16T22:05:03.179Z,24.60
2019-02-16T22:13:13.044Z,26.90
2019-02-16T22:15:40.440Z,23.65
2019-02-16T22:18:07.929Z,25.97
2019-02-16T22:20:35.536Z,23.87
2019-02-16T22:23:02.846Z,22.98
2019-02-16T22:25:30.333Z,22.77
2019-02-16T22:27:57.707Z,27.52
2019-02-16T22:30:25.024Z,23.32
2019-02-16T22:32:52.363Z,27.05
2019-02-16T22:35:19.684Z,24.45
2019-02-16T22:37:47.126Z,26.95
2019-02-16T22:40:14.476Z,25.97
2019-02-16T22:42:41.818Z,27.55
2019-02-16T22:48:16.540Z,25.60
2019-02-16T22:50:43.914Z,26.68
2019-02-16T22:53:11.362Z,29.80
2019-02-16T22:55:38.740Z,24.63
2019-02-16T22:58:06.056Z,28.80
2019-02-16T23:00:52.910Z,26.48
2019-02-16T23:03:20.307Z,28.85
2019-02-16T23:05:47.676Z,22.75
2019-02-16T23:08:14.981Z,25.97
2019-02-16T23:10:42.334Z,22.67
2019-02-16T23:13:09.783Z,28.42
2019-02-16T23:15:37.134Z,27.67
2019-02-16T23:18:04.535Z,27.62
2019-02-16T23:20:31.910Z,25.60
2019-02-16T23:22:59.296Z,24.63
2019-02-16T23:25:26.686Z,24.90
2019-02-16T23:27:54.071Z,26.93
2019-02-16T23:33:28.735Z,28.30
2019-02-16T23:35:56.101Z,25.37
2019-02-16T23:38:23.502Z,24.20
2019-02-16T23:40:50.866Z,29.27
2019-02-16T23:43:18.244Z,22.05
2019-02-16T23:45:45.554Z,25.10
2019-02-16T23:48:12.866Z,23.32
2019-02-16T23:50:40.150Z,28.47
2019-02-16T23:53:07.456Z,29.98
2019-02-16T23:55:34.957Z,27.00
2019-02-16T23:58:02.238Z,27.05
